sensor_id;sensor_type;location;lat;lon;timestamp;pressure;altitude;pressure_sealevel;temperature;humidity
74633;BME280;63139;52.018;8.552;2022-12-10T00:01:10;99728.75;;;-0.17;85.45
74633;BME280;63139;52.018;8.552;2022-12-10T00:03:38;99725.06;;;-0.14;85.68
74633;BME280;63139;52.018;8.552;2022-12-10T00:06:08;99731.94;;;-0.13;85.40
74633;BME280;63139;52.018;8.552;2022-12-10T00:08:37;99731.72;;;-0.10;85.97
74633;BME280;63139;52.018;8.552;2022-12-10T00:11:11;99733.38;;;-0.09;85.35
74633;BME280;63139;52.018;8.552;2022-12-10T00:13:40;99733.94;;;-0.06;85.82
74633;BME280;63139;52.018;8.552;2022-12-10T00:16:09;99743.19;;;-0.02;85.84
74633;BME280;63139;52.018;8.552;2022-12-10T00:18:38;99747.78;;;0.06;85.71
74633;BME280;63139;52.018;8.552;2022-12-10T00:21:07;99742.91;;;0.13;85.55
74633;BME280;63139;52.018;8.552;2022-12-10T00:23:36;99741.50;;;0.20;85.21
74633;BME280;63139;52.018;8.552;2022-12-10T00:26:05;99744.66;;;0.23;85.32
74633;BME280;63139;52.018;8.552;2022-12-10T00:28:34;99739.22;;;0.26;84.82
74633;BME280;63139;52.018;8.552;2022-12-10T00:31:04;99739.69;;;0.31;84.94
74633;BME280;63139;52.018;8.552;2022-12-10T00:33:32;99745.13;;;0.39;85.31
74633;BME280;63139;52.018;8.552;2022-12-10T00:36:05;99751.59;;;0.45;84.72
74633;BME280;63139;52.018;8.552;2022-12-10T00:38:34;99740.84;;;0.50;84.80
74633;BME280;63139;52.018;8.552;2022-12-10T00:41:02;99740.47;;;0.54;85.00
74633;BME280;63139;52.018;8.552;2022-12-10T00:43:32;99736.69;;;0.58;84.56
74633;BME280;63139;52.018;8.552;2022-12-10T00:46:01;99730.53;;;0.59;84.21
74633;BME280;63139;52.018;8.552;2022-12-10T00:48:29;99728.72;;;0.60;83.98
74633;BME280;63139;52.018;8.552;2022-12-10T00:50:58;99739.00;;;0.61;83.76
74633;BME280;63139;52.018;8.552;2022-12-10T00:53:26;99734.75;;;0.60;83.99
74633;BME280;63139;52.018;8.552;2022-12-10T00:55:55;99734.63;;;0.62;83.60
74633;BME280;63139;52.018;8.552;2022-12-10T00:58:26;99732.41;;;0.57;83.81
74633;BME280;63139;52.018;8.552;2022-12-10T01:00:54;99736.91;;;0.55;83.62
74633;BME280;63139;52.018;8.552;2022-12-10T01:03:24;99748.03;;;0.57;83.80
74633;BME280;63139;52.018;8.552;2022-12-10T01:05:52;99749.56;;;0.60;83.55
74633;BME280;63139;52.018;8.552;2022-12-10T01:08:20;99739.13;;;0.60;84.02
74633;BME280;63139;52.018;8.552;2022-12-10T01:10:52;99748.50;;;0.62;83.77
74633;BME280;63139;52.018;8.552;2022-12-10T01:13:22;99748.25;;;0.65;83.84
74633;BME280;63139;52.018;8.552;2022-12-10T01:15:50;99768.00;;;0.68;83.75
74633;BME280;63139;52.018;8.552;2022-12-10T01:18:18;99762.94;;;0.66;83.67
74633;BME280;63139;52.018;8.552;2022-12-10T01:20:47;99759.94;;;0.71;83.68
74633;BME280;63139;52.018;8.552;2022-12-10T01:23:15;99773.69;;;0.73;83.39
74633;BME280;63139;52.018;8.552;2022-12-10T01:25:43;99763.38;;;0.71;83.23
74633;BME280;63139;52.018;8.552;2022-12-10T01:28:10;99770.13;;;0.74;83.09
74633;BME280;63139;52.018;8.552;2022-12-10T01:30:38;99772.59;;;0.75;83.40
74633;BME280;63139;52.018;8.552;2022-12-10T01:33:08;99772.34;;;0.78;83.18
74633;BME280;63139;52.018;8.552;2022-12-10T01:35:36;99778.28;;;0.81;82.92
74633;BME280;63139;52.018;8.552;2022-12-10T01:38:05;99776.50;;;0.81;82.88
74633;BME280;63139;52.018;8.552;2022-12-10T01:40:37;99768.41;;;0.84;82.89
74633;BME280;63139;52.018;8.552;2022-12-10T01:43:05;99764.03;;;0.85;82.74
74633;BME280;63139;52.018;8.552;2022-12-10T01:45:35;99769.56;;;0.91;83.31
74633;BME280;63139;52.018;8.552;2022-12-10T01:48:05;99775.38;;;0.95;82.74
74633;BME280;63139;52.018;8.552;2022-12-10T01:50:33;99773.47;;;0.97;82.66
74633;BME280;63139;52.018;8.552;2022-12-10T01:53:05;99769.06;;;0.97;82.72
74633;BME280;63139;52.018;8.552;2022-12-10T01:55:54;99769.66;;;1.01;82.83
74633;BME280;63139;52.018;8.552;2022-12-10T01:58:22;99770.50;;;1.01;83.03
74633;BME280;63139;52.018;8.552;2022-12-10T02:00:59;99769.28;;;1.05;83.07
74633;BME280;63139;52.018;8.552;2022-12-10T02:03:40;99773.94;;;1.02;82.09
74633;BME280;63139;52.018;8.552;2022-12-10T02:06:23;99773.81;;;1.03;82.41
74633;BME280;63139;52.018;8.552;2022-12-10T02:09:02;99777.09;;;1.05;82.41
74633;BME280;63139;52.018;8.552;2022-12-10T02:11:38;99768.22;;;1.08;82.40
74633;BME280;63139;52.018;8.552;2022-12-10T02:14:17;99771.53;;;1.10;82.36
74633;BME280;63139;52.018;8.552;2022-12-10T02:16:51;99771.38;;;1.11;82.39
74633;BME280;63139;52.018;8.552;2022-12-10T02:19:32;99771.03;;;1.16;82.67
74633;BME280;63139;52.018;8.552;2022-12-10T02:22:03;99771.03;;;1.16;82.27
74633;BME280;63139;52.018;8.552;2022-12-10T02:24:36;99775.97;;;1.19;82.21
74633;BME280;63139;52.018;8.552;2022-12-10T02:27:08;99775.59;;;1.24;82.42
74633;BME280;63139;52.018;8.552;2022-12-10T02:29:41;99780.81;;;1.24;81.73
74633;BME280;63139;52.018;8.552;2022-12-10T02:32:13;99772.16;;;1.23;82.16
74633;BME280;63139;52.018;8.552;2022-12-10T02:34:44;99774.78;;;1.23;82.08
74633;BME280;63139;52.018;8.552;2022-12-10T02:37:21;99768.72;;;1.23;81.99
74633;BME280;63139;52.018;8.552;2022-12-10T02:39:56;99765.06;;;1.25;82.25
74633;BME280;63139;52.018;8.552;2022-12-10T02:42:30;99766.69;;;1.26;82.28
74633;BME280;63139;52.018;8.552;2022-12-10T02:45:00;99763.00;;;1.29;81.69
74633;BME280;63139;52.018;8.552;2022-12-10T02:47:30;99769.63;;;1.33;81.91
74633;BME280;63139;52.018;8.552;2022-12-10T02:49:59;99768.22;;;1.29;81.21
74633;BME280;63139;52.018;8.552;2022-12-10T02:52:27;99768.50;;;1.26;81.47
74633;BME280;63139;52.018;8.552;2022-12-10T02:54:55;99769.28;;;1.26;81.34
74633;BME280;63139;52.018;8.552;2022-12-10T02:57:31;99766.69;;;1.26;81.46
74633;BME280;63139;52.018;8.552;2022-12-10T03:00:08;99773.81;;;1.24;81.78
74633;BME280;63139;52.018;8.552;2022-12-10T03:02:53;99768.50;;;1.26;81.70
74633;BME280;63139;52.018;8.552;2022-12-10T03:05:34;99769.28;;;1.26;81.92
74633;BME280;63139;52.018;8.552;2022-12-10T03:08:08;99754.75;;;1.24;81.33
74633;BME280;63139;52.018;8.552;2022-12-10T03:10:43;99766.69;;;1.26;81.38
74633;BME280;63139;52.018;8.552;2022-12-10T03:13:15;99767.28;;;1.30;81.71
74633;BME280;63139;52.018;8.552;2022-12-10T03:15:47;99763.59;;;1.32;81.56
74633;BME280;63139;52.018;8.552;2022-12-10T03:18:19;99765.25;;;1.33;81.85
74633;BME280;63139;52.018;8.552;2022-12-10T03:20:52;99772.94;;;1.35;81.58
74633;BME280;63139;52.018;8.552;2022-12-10T03:23:21;99767.59;;;1.36;81.83
74633;BME280;63139;52.018;8.552;2022-12-10T03:25:49;99776.00;;;1.40;81.52
74633;BME280;63139;52.018;8.552;2022-12-10T03:28:20;99773.25;;;1.41;81.70
74633;BME280;63139;52.018;8.552;2022-12-10T03:30:51;99772.28;;;1.42;81.43
74633;BME280;63139;52.018;8.552;2022-12-10T03:33:21;99771.47;;;1.42;81.51
74633;BME280;63139;52.018;8.552;2022-12-10T03:35:49;99772.03;;;1.45;81.58
74633;BME280;63139;52.018;8.552;2022-12-10T03:38:18;99772.59;;;1.49;81.64
74633;BME280;63139;52.018;8.552;2022-12-10T03:40:45;99777.69;;;1.50;81.49
74633;BME280;63139;52.018;8.552;2022-12-10T03:43:13;99778.41;;;1.52;81.70
74633;BME280;63139;52.018;8.552;2022-12-10T03:45:41;99771.28;;;1.54;81.35
74633;BME280;63139;52.018;8.552;2022-12-10T03:48:10;99767.56;;;1.57;81.40
74633;BME280;63139;52.018;8.552;2022-12-10T03:50:38;99768.28;;;1.59;81.49
74633;BME280;63139;52.018;8.552;2022-12-10T03:53:05;99764.00;;;1.58;80.78
74633;BME280;63139;52.018;8.552;2022-12-10T03:55:33;99764.97;;;1.57;81.20
74633;BME280;63139;52.018;8.552;2022-12-10T03:58:01;99774.56;;;1.56;81.08
74633;BME280;63139;52.018;8.552;2022-12-10T04:00:28;99768.53;;;1.56;81.01
74633;BME280;63139;52.018;8.552;2022-12-10T04:02:56;99772.78;;;1.57;81.16
74633;BME280;63139;52.018;8.552;2022-12-10T04:05:25;99771.13;;;1.56;81.14
74633;BME280;63139;52.018;8.552;2022-12-10T04:07:53;99778.00;;;1.57;80.86
74633;BME280;63139;52.018;8.552;2022-12-10T04:10:21;99774.56;;;1.56;80.68
74633;BME280;63139;52.018;8.552;2022-12-10T04:12:49;99781.31;;;1.59;81.24
74633;BME280;63139;52.018;8.552;2022-12-10T04:15:38;99772.78;;;1.57;81.14
74633;BME280;63139;52.018;8.552;2022-12-10T04:18:23;99779.09;;;1.54;80.47
74633;BME280;63139;52.018;8.552;2022-12-10T04:20:52;99780.78;;;1.55;80.90
74633;BME280;63139;52.018;8.552;2022-12-10T04:23:37;99778.28;;;1.54;80.76
74633;BME280;63139;52.018;8.552;2022-12-10T04:26:23;99780.06;;;1.53;81.21
74633;BME280;63139;52.018;8.552;2022-12-10T04:29:09;99779.09;;;1.54;81.27
74633;BME280;63139;52.018;8.552;2022-12-10T04:31:37;99783.94;;;1.59;80.79
74633;BME280;63139;52.018;8.552;2022-12-10T04:34:04;99791.63;;;1.61;81.28
74633;BME280;63139;52.018;8.552;2022-12-10T04:36:33;99786.41;;;1.61;81.42
74633;BME280;63139;52.018;8.552;2022-12-10T04:39:01;99789.72;;;1.63;81.33
74633;BME280;63139;52.018;8.552;2022-12-10T04:41:29;99783.69;;;1.62;80.90
74633;BME280;63139;52.018;8.552;2022-12-10T04:43:57;99782.72;;;1.63;80.81
74633;BME280;63139;52.018;8.552;2022-12-10T04:46:25;99786.13;;;1.64;81.04
74633;BME280;63139;52.018;8.552;2022-12-10T04:48:52;99783.69;;;1.62;80.97
74633;BME280;63139;52.018;8.552;2022-12-10T04:51:20;99781.31;;;1.59;81.05
74633;BME280;63139;52.018;8.552;2022-12-10T04:53:49;99783.94;;;1.59;80.79
74633;BME280;63139;52.018;8.552;2022-12-10T04:56:17;99789.03;;;1.61;81.26
74633;BME280;63139;52.018;8.552;2022-12-10T04:58:44;99784.63;;;1.61;80.75
74633;BME280;63139;52.018;8.552;2022-12-10T05:01:12;99793.28;;;1.62;80.87
74633;BME280;63139;52.018;8.552;2022-12-10T05:03:41;99788.06;;;1.62;81.00
74633;BME280;63139;52.018;8.552;2022-12-10T05:06:11;99793.41;;;1.60;81.16
74633;BME280;63139;52.018;8.552;2022-12-10T05:08:40;99800.28;;;1.61;81.08
74633;BME280;63139;52.018;8.552;2022-12-10T05:11:11;99797.81;;;1.60;80.97
74633;BME280;63139;52.018;8.552;2022-12-10T05:13:40;99796.03;;;1.60;80.92
74633;BME280;63139;52.018;8.552;2022-12-10T05:16:10;99791.75;;;1.59;81.19
74633;BME280;63139;52.018;8.552;2022-12-10T05:18:39;99796.03;;;1.60;81.29
74633;BME280;63139;52.018;8.552;2022-12-10T05:21:09;99794.25;;;1.61;81.14
74633;BME280;63139;52.018;8.552;2022-12-10T05:23:40;99783.81;;;1.61;81.37
74633;BME280;63139;52.018;8.552;2022-12-10T05:26:10;99784.06;;;1.58;81.07
74633;BME280;63139;52.018;8.552;2022-12-10T05:28:41;99784.06;;;1.58;81.57
74633;BME280;63139;52.018;8.552;2022-12-10T05:31:11;99786.53;;;1.59;81.62
74633;BME280;63139;52.018;8.552;2022-12-10T05:33:39;99786.41;;;1.61;81.15
74633;BME280;63139;52.018;8.552;2022-12-10T05:36:08;99787.13;;;1.63;81.25
74633;BME280;63139;52.018;8.552;2022-12-10T05:38:38;99787.91;;;1.63;80.99
74633;BME280;63139;52.018;8.552;2022-12-10T05:41:11;99797.28;;;1.66;81.19
74633;BME280;63139;52.018;8.552;2022-12-10T05:43:39;99799.06;;;1.65;81.27
74633;BME280;63139;52.018;8.552;2022-12-10T05:46:09;99794.13;;;1.62;81.41
74633;BME280;63139;52.018;8.552;2022-12-10T05:48:38;99798.22;;;1.65;81.24
74633;BME280;63139;52.018;8.552;2022-12-10T05:51:06;99797.28;;;1.66;81.24
74633;BME280;63139;52.018;8.552;2022-12-10T05:53:35;99803.22;;;1.68;81.12
74633;BME280;63139;52.018;8.552;2022-12-10T05:56:05;99806.38;;;1.71;81.47
74633;BME280;63139;52.018;8.552;2022-12-10T05:58:35;99801.03;;;1.73;80.83
74633;BME280;63139;52.018;8.552;2022-12-10T06:01:06;99806.97;;;1.75;80.92
74633;BME280;63139;52.018;8.552;2022-12-10T06:03:34;99808.84;;;1.73;80.88
74633;BME280;63139;52.018;8.552;2022-12-10T06:06:02;99809.69;;;1.73;80.82
74633;BME280;63139;52.018;8.552;2022-12-10T06:08:31;99810.50;;;1.74;81.14
74633;BME280;63139;52.018;8.552;2022-12-10T06:11:00;99804.91;;;1.78;81.14
74633;BME280;63139;52.018;8.552;2022-12-10T06:13:28;99810.81;;;1.80;80.42
74633;BME280;63139;52.018;8.552;2022-12-10T06:15:57;99818.53;;;1.82;80.55
74633;BME280;63139;52.018;8.552;2022-12-10T06:18:25;99800.50;;;1.79;80.54
74633;BME280;63139;52.018;8.552;2022-12-10T06:20:53;99811.78;;;1.79;80.77
74633;BME280;63139;52.018;8.552;2022-12-10T06:23:20;99816.03;;;1.80;80.84
74633;BME280;63139;52.018;8.552;2022-12-10T06:25:48;99810.94;;;1.79;80.84
74633;BME280;63139;52.018;8.552;2022-12-10T06:28:16;99806.72;;;1.78;80.85
74633;BME280;63139;52.018;8.552;2022-12-10T06:30:43;99813.56;;;1.79;80.76
74633;BME280;63139;52.018;8.552;2022-12-10T06:33:12;99814.66;;;1.76;80.80
74633;BME280;63139;52.018;8.552;2022-12-10T06:35:40;99812.06;;;1.76;80.92
74633;BME280;63139;52.018;8.552;2022-12-10T06:38:08;99809.31;;;1.78;81.20
74633;BME280;63139;52.018;8.552;2022-12-10T06:40:39;99820.44;;;1.80;81.14
74633;BME280;63139;52.018;8.552;2022-12-10T06:43:06;99820.06;;;1.84;80.93
74633;BME280;63139;52.018;8.552;2022-12-10T06:45:38;99817.47;;;1.84;81.06
74633;BME280;63139;52.018;8.552;2022-12-10T06:48:06;99821.84;;;1.84;81.09
74633;BME280;63139;52.018;8.552;2022-12-10T06:50:35;99825.13;;;1.86;81.12
74633;BME280;63139;52.018;8.552;2022-12-10T06:53:03;99826.66;;;1.88;81.13
74633;BME280;63139;52.018;8.552;2022-12-10T06:55:31;99817.06;;;1.89;81.12
74633;BME280;63139;52.018;8.552;2022-12-10T06:57:59;99815.28;;;1.89;80.89
74633;BME280;63139;52.018;8.552;2022-12-10T07:00:26;99821.19;;;1.91;80.80
74633;BME280;63139;52.018;8.552;2022-12-10T07:02:54;99828.88;;;1.93;80.85
74633;BME280;63139;52.018;8.552;2022-12-10T07:05:22;99819.28;;;1.93;81.06
74633;BME280;63139;52.018;8.552;2022-12-10T07:07:51;99827.09;;;1.93;80.97
74633;BME280;63139;52.018;8.552;2022-12-10T07:10:19;99831.63;;;1.91;81.40
74633;BME280;63139;52.018;8.552;2022-12-10T07:12:47;99834.09;;;1.93;81.37
74633;BME280;63139;52.018;8.552;2022-12-10T07:15:15;99842.75;;;1.93;80.93
74633;BME280;63139;52.018;8.552;2022-12-10T07:17:42;99834.09;;;1.93;80.94
74633;BME280;63139;52.018;8.552;2022-12-10T07:20:10;99840.03;;;1.95;80.90
74633;BME280;63139;52.018;8.552;2022-12-10T07:22:39;99840.84;;;1.95;80.38
74633;BME280;63139;52.018;8.552;2022-12-10T07:25:08;99845.13;;;1.97;80.31
74633;BME280;63139;52.018;8.552;2022-12-10T07:27:36;99842.25;;;2.00;80.91
74633;BME280;63139;52.018;8.552;2022-12-10T07:30:05;99844.03;;;1.99;80.31
74633;BME280;63139;52.018;8.552;2022-12-10T07:32:33;99851.72;;;2.01;79.61
74633;BME280;63139;52.018;8.552;2022-12-10T07:35:01;99857.66;;;2.03;79.69
74633;BME280;63139;52.018;8.552;2022-12-10T07:37:29;99862.88;;;2.03;79.27
74633;BME280;63139;52.018;8.552;2022-12-10T07:39:56;99859.31;;;2.04;79.32
74633;BME280;63139;52.018;8.552;2022-12-10T07:42:25;99858.34;;;2.05;79.07
74633;BME280;63139;52.018;8.552;2022-12-10T07:44:53;99860.00;;;2.06;78.79
74633;BME280;63139;52.018;8.552;2022-12-10T07:47:21;99860.13;;;2.04;78.51
74633;BME280;63139;52.018;8.552;2022-12-10T07:49:49;99867.84;;;2.06;78.92
74633;BME280;63139;52.018;8.552;2022-12-10T07:52:16;99874.56;;;2.08;78.58
74633;BME280;63139;52.018;8.552;2022-12-10T07:54:44;99867.31;;;2.12;78.58
74633;BME280;63139;52.018;8.552;2022-12-10T07:57:12;99865.53;;;2.12;78.72
74633;BME280;63139;52.018;8.552;2022-12-10T07:59:41;99863.47;;;2.16;78.74
74633;BME280;63139;52.018;8.552;2022-12-10T08:02:09;99865.97;;;2.17;78.80
74633;BME280;63139;52.018;8.552;2022-12-10T08:04:37;99874.38;;;2.21;78.63
74633;BME280;63139;52.018;8.552;2022-12-10T08:07:05;99883.88;;;2.22;78.69
74633;BME280;63139;52.018;8.552;2022-12-10T08:09:33;99881.00;;;2.25;78.14
74633;BME280;63139;52.018;8.552;2022-12-10T08:12:02;99886.91;;;2.27;78.48
74633;BME280;63139;52.018;8.552;2022-12-10T08:14:29;99885.13;;;2.27;78.03
74633;BME280;63139;52.018;8.552;2022-12-10T08:16:58;99887.16;;;2.24;77.82
74633;BME280;63139;52.018;8.552;2022-12-10T08:19:26;99889.91;;;2.22;77.90
74633;BME280;63139;52.018;8.552;2022-12-10T08:21:57;99887.16;;;2.24;77.91
74633;BME280;63139;52.018;8.552;2022-12-10T08:24:25;99894.75;;;2.27;77.91
74633;BME280;63139;52.018;8.552;2022-12-10T08:26:53;99889.41;;;2.28;78.00
74633;BME280;63139;52.018;8.552;2022-12-10T08:29:20;99883.47;;;2.26;77.55
74633;BME280;63139;52.018;8.552;2022-12-10T08:31:48;99891.31;;;2.26;77.66
74633;BME280;63139;52.018;8.552;2022-12-10T08:34:18;99894.75;;;2.27;77.72
74633;BME280;63139;52.018;8.552;2022-12-10T08:36:46;99904.78;;;2.31;77.69
74633;BME280;63139;52.018;8.552;2022-12-10T08:39:14;99897.78;;;2.32;77.92
74633;BME280;63139;52.018;8.552;2022-12-10T08:41:43;99909.66;;;2.36;77.91
74633;BME280;63139;52.018;8.552;2022-12-10T08:44:11;99907.88;;;2.37;77.85
74633;BME280;63139;52.018;8.552;2022-12-10T08:46:39;99909.25;;;2.41;77.24
74633;BME280;63139;52.018;8.552;2022-12-10T08:49:07;99916.84;;;2.44;77.47
74633;BME280;63139;52.018;8.552;2022-12-10T08:51:36;99911.44;;;2.45;76.65
74633;BME280;63139;52.018;8.552;2022-12-10T08:54:04;99908.72;;;2.47;76.98
74633;BME280;63139;52.018;8.552;2022-12-10T08:56:32;99913.69;;;2.50;76.61
74633;BME280;63139;52.018;8.552;2022-12-10T08:59:00;99910.13;;;2.51;76.54
74633;BME280;63139;52.018;8.552;2022-12-10T09:01:27;99915.66;;;2.57;76.67
74633;BME280;63139;52.018;8.552;2022-12-10T09:03:55;99914.69;;;2.58;75.33
74633;BME280;63139;52.018;8.552;2022-12-10T09:06:24;99914.41;;;2.61;74.79
74633;BME280;63139;52.018;8.552;2022-12-10T09:08:53;99916.66;;;2.66;73.96
74633;BME280;63139;52.018;8.552;2022-12-10T09:11:23;99920.78;;;2.68;73.94
74633;BME280;63139;52.018;8.552;2022-12-10T09:13:52;99918.88;;;2.70;74.24
74633;BME280;63139;52.018;8.552;2022-12-10T09:16:21;99923.00;;;2.73;74.11
74633;BME280;63139;52.018;8.552;2022-12-10T09:18:49;99931.69;;;2.73;73.58
74633;BME280;63139;52.018;8.552;2022-12-10T09:21:17;99931.69;;;2.73;73.32
74633;BME280;63139;52.018;8.552;2022-12-10T09:23:46;99936.63;;;2.77;73.43
74633;BME280;63139;52.018;8.552;2022-12-10T09:26:15;99939.09;;;2.78;73.31
74633;BME280;63139;52.018;8.552;2022-12-10T09:28:44;99943.50;;;2.78;73.09
74633;BME280;63139;52.018;8.552;2022-12-10T09:31:14;99942.44;;;2.80;73.87
74633;BME280;63139;52.018;8.552;2022-12-10T09:33:47;99953.56;;;2.82;73.94
74633;BME280;63139;52.018;8.552;2022-12-10T09:36:15;99943.81;;;2.84;73.37
74633;BME280;63139;52.018;8.552;2022-12-10T09:38:44;99940.09;;;2.87;72.97
74633;BME280;63139;52.018;8.552;2022-12-10T09:41:27;99947.66;;;2.90;72.29
74633;BME280;63139;52.018;8.552;2022-12-10T09:44:05;99942.31;;;2.91;72.61
74633;BME280;63139;52.018;8.552;2022-12-10T09:46:44;99943.28;;;2.90;71.91
74633;BME280;63139;52.018;8.552;2022-12-10T09:49:23;99947.00;;;2.88;71.38
74633;BME280;63139;52.018;8.552;2022-12-10T09:51:55;99941.06;;;2.86;72.39
74633;BME280;63139;52.018;8.552;2022-12-10T09:54:27;99948.50;;;2.90;72.67
74633;BME280;63139;52.018;8.552;2022-12-10T09:56:59;99945.63;;;2.93;72.50
74633;BME280;63139;52.018;8.552;2022-12-10T09:59:30;99945.75;;;2.92;70.70
74633;BME280;63139;52.018;8.552;2022-12-10T10:02:03;99943.84;;;2.94;71.26
74633;BME280;63139;52.018;8.552;2022-12-10T10:04:38;99940.16;;;2.96;71.49
74633;BME280;63139;52.018;8.552;2022-12-10T10:07:06;99942.75;;;2.96;70.82
74633;BME280;63139;52.018;8.552;2022-12-10T10:09:39;99947.84;;;2.98;69.90
74633;BME280;63139;52.018;8.552;2022-12-10T10:12:12;99945.09;;;2.99;69.87
74633;BME280;63139;52.018;8.552;2022-12-10T10:14:42;99940.81;;;2.98;69.95
74633;BME280;63139;52.018;8.552;2022-12-10T10:17:14;99940.94;;;2.97;69.80
74633;BME280;63139;52.018;8.552;2022-12-10T10:19:44;99937.25;;;2.99;69.25
74633;BME280;63139;52.018;8.552;2022-12-10T10:22:11;99942.47;;;2.99;68.77
74633;BME280;63139;52.018;8.552;2022-12-10T10:24:41;99937.97;;;3.01;68.97
74633;BME280;63139;52.018;8.552;2022-12-10T10:27:15;99938.66;;;3.03;68.26
74633;BME280;63139;52.018;8.552;2022-12-10T10:29:44;99934.63;;;2.99;68.38
74633;BME280;63139;52.018;8.552;2022-12-10T10:32:16;99936.28;;;3.00;68.35
74633;BME280;63139;52.018;8.552;2022-12-10T10:34:46;99937.38;;;2.98;67.93
74633;BME280;63139;52.018;8.552;2022-12-10T10:37:24;99937.78;;;2.93;66.77
74633;BME280;63139;52.018;8.552;2022-12-10T10:39:53;99941.22;;;2.94;67.14
74633;BME280;63139;52.018;8.552;2022-12-10T10:42:34;99937.66;;;2.95;67.09
74633;BME280;63139;52.018;8.552;2022-12-10T10:45:05;99930.66;;;2.95;66.69
74633;BME280;63139;52.018;8.552;2022-12-10T10:47:34;99932.97;;;2.98;67.48
74633;BME280;63139;52.018;8.552;2022-12-10T10:50:04;99934.22;;;2.94;66.46
74633;BME280;63139;52.018;8.552;2022-12-10T10:52:36;99939.31;;;2.96;66.32
74633;BME280;63139;52.018;8.552;2022-12-10T10:55:08;99933.94;;;2.97;66.36
74633;BME280;63139;52.018;8.552;2022-12-10T10:57:57;99940.00;;;2.98;66.21
74633;BME280;63139;52.018;8.552;2022-12-10T11:00:25;99939.88;;;2.99;66.53
74633;BME280;63139;52.018;8.552;2022-12-10T11:02:52;99941.00;;;3.06;66.64
74633;BME280;63139;52.018;8.552;2022-12-10T11:05:23;99930.94;;;3.11;66.89
74633;BME280;63139;52.018;8.552;2022-12-10T11:08:02;99937.00;;;3.12;64.23
74633;BME280;63139;52.018;8.552;2022-12-10T11:10:31;99943.75;;;3.15;65.62
74633;BME280;63139;52.018;8.552;2022-12-10T11:13:04;99943.75;;;3.15;63.63
74633;BME280;63139;52.018;8.552;2022-12-10T11:15:35;99939.19;;;3.07;63.71
74633;BME280;63139;52.018;8.552;2022-12-10T11:18:22;99935.91;;;3.15;63.24
74633;BME280;63139;52.018;8.552;2022-12-10T11:20:57;99939.94;;;3.19;64.15
74633;BME280;63139;52.018;8.552;2022-12-10T11:23:27;99936.78;;;3.25;63.65
74633;BME280;63139;52.018;8.552;2022-12-10T11:26:02;99936.22;;;3.31;63.72
74633;BME280;63139;52.018;8.552;2022-12-10T11:28:47;99937.34;;;3.38;63.19
74633;BME280;63139;52.018;8.552;2022-12-10T11:31:30;99940.63;;;3.30;61.01
74633;BME280;63139;52.018;8.552;2022-12-10T11:34:14;99939.25;;;3.36;61.34
74633;BME280;63139;52.018;8.552;2022-12-10T11:36:52;99939.66;;;3.41;61.38
74633;BME280;63139;52.018;8.552;2022-12-10T11:39:37;99929.78;;;3.54;61.20
74633;BME280;63139;52.018;8.552;2022-12-10T11:42:16;99942.03;;;3.54;61.46
74633;BME280;63139;52.018;8.552;2022-12-10T11:44:54;99936.38;;;3.48;60.10
74633;BME280;63139;52.018;8.552;2022-12-10T11:47:28;99936.94;;;3.52;58.98
74633;BME280;63139;52.018;8.552;2022-12-10T11:50:11;99938.47;;;3.55;60.95
74633;BME280;63139;52.018;8.552;2022-12-10T11:52:52;99948.09;;;3.54;61.58
74633;BME280;63139;52.018;8.552;2022-12-10T11:55:31;99947.84;;;3.47;61.10
74633;BME280;63139;52.018;8.552;2022-12-10T11:58:15;99950.28;;;3.49;62.16
74633;BME280;63139;52.018;8.552;2022-12-10T12:00:57;99938.72;;;3.51;62.76
74633;BME280;63139;52.018;8.552;2022-12-10T12:03:44;99946.31;;;3.55;63.00
74633;BME280;63139;52.018;8.552;2022-12-10T12:06:39;99942.44;;;3.59;62.68
74633;BME280;63139;52.018;8.552;2022-12-10T12:09:23;99943.69;;;3.64;63.94
74633;BME280;63139;52.018;8.552;2022-12-10T12:12:08;99956.25;;;3.70;63.07
74633;BME280;63139;52.018;8.552;2022-12-10T12:14:41;99948.25;;;3.72;62.03
74633;BME280;63139;52.018;8.552;2022-12-10T12:17:17;99944.53;;;3.74;62.07
74633;BME280;63139;52.018;8.552;2022-12-10T12:19:51;99940.81;;;3.77;62.42
74633;BME280;63139;52.018;8.552;2022-12-10T12:22:24;99944.41;;;3.76;62.13
74633;BME280;63139;52.018;8.552;2022-12-10T12:24:55;99942.59;;;3.67;62.04
74633;BME280;63139;52.018;8.552;2022-12-10T12:27:27;99944.38;;;3.66;62.62
74633;BME280;63139;52.018;8.552;2022-12-10T12:30:05;99939.41;;;3.63;61.46
74633;BME280;63139;52.018;8.552;2022-12-10T12:32:46;99937.09;;;3.60;62.04
74633;BME280;63139;52.018;8.552;2022-12-10T12:35:20;99939.00;;;3.58;62.62
74633;BME280;63139;52.018;8.552;2022-12-10T12:37:53;99940.78;;;3.58;63.35
74633;BME280;63139;52.018;8.552;2022-12-10T12:40:28;99946.16;;;3.56;62.69
74633;BME280;63139;52.018;8.552;2022-12-10T12:42:59;99945.50;;;3.54;63.22
74633;BME280;63139;52.018;8.552;2022-12-10T12:45:34;99943.97;;;3.51;63.48
74633;BME280;63139;52.018;8.552;2022-12-10T12:48:15;99947.66;;;3.49;62.74
74633;BME280;63139;52.018;8.552;2022-12-10T12:50:45;99946.19;;;3.46;63.58
74633;BME280;63139;52.018;8.552;2022-12-10T12:53:16;99951.94;;;3.40;63.07
74633;BME280;63139;52.018;8.552;2022-12-10T12:55:50;99946.97;;;3.37;63.37
74633;BME280;63139;52.018;8.552;2022-12-10T12:58:27;99954.41;;;3.32;62.28
74633;BME280;63139;52.018;8.552;2022-12-10T13:01:07;99957.88;;;3.33;62.89
74633;BME280;63139;52.018;8.552;2022-12-10T13:03:43;99958.53;;;3.35;64.29
74633;BME280;63139;52.018;8.552;2022-12-10T13:06:14;99963.09;;;3.33;64.50
74633;BME280;63139;52.018;8.552;2022-12-10T13:08:46;99965.13;;;3.29;65.08
74633;BME280;63139;52.018;8.552;2022-12-10T13:11:18;99961.28;;;3.24;64.93
74633;BME280;63139;52.018;8.552;2022-12-10T13:17:26;99959.03;;;3.19;64.06
74633;BME280;63139;52.018;8.552;2022-12-10T13:20:34;99955.88;;;3.16;63.57
74633;BME280;63139;52.018;8.552;2022-12-10T13:23:04;99955.63;;;3.19;64.40
74633;BME280;63139;52.018;8.552;2022-12-10T13:25:41;99959.19;;;3.18;64.15
74633;BME280;63139;52.018;8.552;2022-12-10T13:28:28;99954.47;;;3.11;64.70
74633;BME280;63139;52.018;8.552;2022-12-10T13:31:21;99957.25;;;3.10;64.37
74633;BME280;63139;52.018;8.552;2022-12-10T13:33:52;99964.13;;;3.11;65.48
74633;BME280;63139;52.018;8.552;2022-12-10T13:36:25;99965.94;;;3.10;65.48